Medalanes, New Mexico
Current Conditions -  °F | °C
As of 11:15 AM on Tuesday 21 Oct 2014 (Local Time) from KLAM Reporting Station
Overcast Overcast  
Wind Chill: 51°   Ceiling: 3700
Heat Index: 51°   Visibility: 10mi
Dew Point: 46°   Wind: 3mph
Humidity: 83%   Direction: 130°SE
Pressure: 30.25"   Gusts: NA
Location:  36.1769°N, 106.184°W
Report Text: KLAM 211715Z AUTO 13003KT 10SM SCT030 BKN037 OVC070 10/08 A3025 RMK AO2 T01030075
Loading
Personal Weather Stations






























Interactive Weather Map
Tropical Storm Tracking
New forecast layout! Learn more

10-Day Weather Forecast

Advertisements
Track Severe Weather on mobile